Englee, Canada
Current Conditions -  °F | °C
As of 10:00 AM on Tuesday 21 Oct 2014 (Local Time) from CYAY Reporting Station
Clear Clear  
Wind Chill: 32°   Ceiling: Unl
Heat Index: 41°   Visibility: 9mi
Dew Point: 34°   Wind: 17mph
Humidity: 76%   Direction: 260°W
Pressure: 29.75"   Gusts: NA
Location:  50.73°N, 56.1°W
Report Text: CYAY 211200Z AUTO 26015KT 9SM CLR 05/01 A2975 RMK PRESRR SLP074
Loading
Personal Weather Stations






























Interactive Weather Map
Tropical Storm Tracking
New forecast layout! Learn more

10-Day Weather Forecast

Advertisements
Track Severe Weather on mobile